Terminal Aerodrome Forecast
Issued by NWS

Home | Current Version | Previous Version | Graphics & Text | Print | Product List | Glossary On
Versions: 1 2 3 4 5 6 7 8 9 10 11 12 13 14 15 16
000
FTUS43 KMPX 161700 CCA
TAFAXN
TAF COR
KAXN 161744Z 1618/1718 23010KT P6SM SKC
     FM170000 18004KT P6SM SKC
     FM171200 25003KT P6SM SCT150=

USA.gov is the U.S. government's official web portal to all federal, state and local government web resources and services.